Time;durP1;ratioP1;P1;durP2;ratioP2;P2;SDS_P1;SDS_P2;PMS_P1;PMS_P2;Temp;Humidity;BMP_temperature;BMP_pressure;BME280_temperature;BME280_humidity;BME280_pressure;Samples;Min_cycle;Max_cycle;Signal;HPM_P1;HPM_P2
2022/03/24 00:00:45;;;;;;;7.30;4.88;;;;;;;7.01;100.00;101278.22;7395739;19;20038;-56
2022/03/24 00:03:11;;;;;;;11.95;6.07;;;;;;;6.97;100.00;101271.94;7398746;19;20013;-57
2022/03/24 00:05:37;;;;;;;13.57;4.53;;;;;;;6.95;100.00;101271.59;7393150;19;20010;-56
2022/03/24 00:08:06;;;;;;;10.23;4.28;;;;;;;6.89;100.00;101274.00;7392713;19;20018;-56
2022/03/24 00:10:32;;;;;;;14.07;6.20;;;;;;;6.81;100.00;101266.22;7395064;19;20015;-57
2022/03/24 00:12:59;;;;;;;9.02;3.80;;;;;;;6.77;100.00;101265.47;7396391;19;20066;-56
2022/03/24 00:15:25;;;;;;;13.40;4.05;;;;;;;6.73;100.00;101261.97;7395796;19;20015;-56
2022/03/24 00:17:52;;;;;;;23.48;5.47;;;;;;;6.72;100.00;101268.69;7391519;19;20478;-57
2022/03/24 00:20:19;;;;;;;19.77;5.90;;;;;;;6.68;100.00;101262.44;7392756;19;20374;-57
2022/03/24 00:22:46;;;;;;;15.80;3.97;;;;;;;6.58;100.00;101260.59;7392818;19;20018;-57
2022/03/24 00:25:12;;;;;;;12.25;5.53;;;;;;;6.59;100.00;101264.91;7390732;19;20015;-57
2022/03/24 00:27:40;;;;;;;9.48;3.83;;;;;;;6.55;100.00;101264.97;7392432;19;20007;-56
2022/03/24 00:30:08;;;;;;;8.35;3.83;;;;;;;6.57;100.00;101259.00;7394303;19;20031;-57
2022/03/24 00:32:36;;;;;;;11.57;4.63;;;;;;;6.56;100.00;101265.75;7391023;19;20361;-57
2022/03/24 00:35:02;;;;;;;16.38;3.78;;;;;;;6.50;100.00;101256.31;7393994;19;20007;-55
2022/03/24 00:37:29;;;;;;;16.45;5.82;;;;;;;6.49;100.00;101263.06;7392570;19;20011;-56
2022/03/24 00:39:55;;;;;;;13.02;7.22;;;;;;;6.49;100.00;101254.75;7392639;19;20015;-56
2022/03/24 00:42:22;;;;;;;10.70;5.28;;;;;;;6.43;100.00;101256.41;7396548;19;20025;-56
2022/03/24 00:44:49;;;;;;;11.13;3.40;;;;;;;6.46;100.00;101255.59;7392710;19;20011;-56
2022/03/24 00:47:15;;;;;;;13.30;4.63;;;;;;;6.43;100.00;101250.88;7393796;19;20011;-56
2022/03/24 00:49:42;;;;;;;11.35;5.93;;;;;;;6.37;100.00;101263.59;7393633;19;20011;-56
2022/03/24 00:52:12;;;;;;;8.15;4.28;;;;;;;6.34;100.00;101253.38;7397357;19;20014;-56
2022/03/24 00:54:38;;;;;;;20.05;5.85;;;;;;;6.32;100.00;101253.78;7391668;19;20070;-56
2022/03/24 00:57:06;;;;;;;16.92;4.43;;;;;;;6.31;100.00;101252.19;7392802;19;20010;-56
2022/03/24 00:59:32;;;;;;;9.95;5.45;;;;;;;6.23;100.00;101255.47;7389231;19;20015;-57
2022/03/24 01:02:00;;;;;;;16.30;5.25;;;;;;;6.28;100.00;101252.25;7392596;19;20045;-57
2022/03/24 01:04:27;;;;;;;10.45;4.55;;;;;;;6.30;100.00;101255.38;7394169;19;21197;-57
2022/03/24 01:06:53;;;;;;;11.88;5.13;;;;;;;6.26;100.00;101249.88;7393969;19;20486;-57
2022/03/24 01:09:19;;;;;;;10.57;3.85;;;;;;;6.23;100.00;101252.69;7391037;19;20034;-56
2022/03/24 01:11:46;;;;;;;22.25;5.20;;;;;;;6.22;100.00;101251.09;7395489;19;20027;-57
2022/03/24 01:14:16;;;;;;;12.23;4.97;;;;;;;6.21;100.00;101249.56;7390485;19;20034;-57
2022/03/24 01:16:43;;;;;;;21.00;5.57;;;;;;;6.19;100.00;101238.91;7391471;19;20033;-57
2022/03/24 01:19:09;;;;;;;4.53;3.47;;;;;;;6.19;100.00;101246.41;7390956;19;20594;-57
2022/03/24 01:21:36;;;;;;;17.33;4.95;;;;;;;6.19;100.00;101246.41;7394232;19;20007;-57
2022/03/24 01:24:03;;;;;;;10.95;5.47;;;;;;;6.16;100.00;101248.03;7390147;19;20011;-56
2022/03/24 01:26:29;;;;;;;8.32;4.63;;;;;;;6.16;100.00;101247.22;7390727;19;20496;-57
2022/03/24 01:28:56;;;;;;;14.13;5.70;;;;;;;6.11;100.00;101245.69;7391422;19;20477;-57
2022/03/24 01:31:22;;;;;;;8.05;4.35;;;;;;;6.11;100.00;101246.47;7393097;19;20010;-57
2022/03/24 01:33:53;;;;;;;10.73;4.77;;;;;;;6.13;100.00;101237.78;7387152;19;20029;-56
2022/03/24 01:36:20;;;;;;;13.45;5.68;;;;;;;6.07;100.00;101233.88;7389155;19;20235;-57
2022/03/24 01:38:47;;;;;;;13.63;4.55;;;;;;;6.06;100.00;101238.63;7389206;19;20078;-57
2022/03/24 01:41:19;;;;;;;16.10;3.97;;;;;;;6.04;100.00;101231.97;7394396;19;20011;-57
2022/03/24 01:43:45;;;;;;;14.93;5.82;;;;;;;5.99;100.00;101232.41;7390791;19;20017;-57
2022/03/24 01:46:19;;;;;;;19.83;4.70;;;;;;;5.98;100.00;101231.59;7389462;19;20010;-57
2022/03/24 01:48:45;;;;;;;7.40;4.20;;;;;;;5.96;100.00;101233.22;7396070;19;20011;-57
2022/03/24 01:51:11;;;;;;;7.60;4.72;;;;;;;5.89;100.00;101228.53;7393408;19;20029;-56
2022/03/24 01:53:40;;;;;;;15.27;6.03;;;;;;;5.86;100.00;101232.13;7397629;19;20044;-57
2022/03/24 01:56:07;;;;;;;10.80;4.70;;;;;;;5.87;100.00;101235.66;7397499;19;20019;-56
2022/03/24 01:58:37;;;;;;;9.77;4.90;;;;;;;5.84;100.00;101222.69;7395462;19;20017;-57
2022/03/24 02:01:37;;;;;;;5.18;3.65;;;;;;;5.82;100.00;101223.06;7397987;19;20070;-57
2022/03/24 02:04:04;;;;;;;7.40;3.63;;;;;;;5.82;100.00;101223.06;7398036;19;20014;-56
2022/03/24 02:06:34;;;;;;;4.03;3.63;;;;;;;5.76;100.00;101218.41;7398766;19;20011;-56
2022/03/24 02:09:04;;;;;;;9.30;3.10;;;;;;;5.72;100.00;101218.41;7396146;19;20048;-56
2022/03/24 02:11:31;;;;;;;7.50;4.15;;;;;;;5.67;100.00;101226.38;7398720;19;20024;-56
2022/03/24 02:13:58;;;;;;;10.85;4.68;;;;;;;5.66;100.00;101225.56;7397797;19;20475;-57
2022/03/24 02:16:27;;;;;;;14.30;5.68;;;;;;;5.63;100.00;101223.63;7394878;19;20011;-57
2022/03/24 02:18:59;;;;;;;12.73;5.00;;;;;;;5.58;100.00;101224.09;7396210;19;20038;-56
2022/03/24 02:21:28;;;;;;;23.75;5.32;;;;;;;5.53;100.00;101221.75;7398961;19;20070;-57
2022/03/24 02:23:54;;;;;;;12.20;4.30;;;;;;;5.56;100.00;101225.69;7398733;19;20018;-57
2022/03/24 02:26:21;;;;;;;5.65;4.97;;;;;;;5.60;100.00;101221.69;7400234;19;20052;-56
2022/03/24 02:28:47;;;;;;;13.70;4.95;;;;;;;5.58;100.00;101229.59;7399945;19;20006;-56
2022/03/24 02:31:13;;;;;;;11.45;5.97;;;;;;;5.49;100.00;101226.53;7399005;19;20074;-56
2022/03/24 02:33:40;;;;;;;4.00;2.88;;;;;;;5.45;100.00;101224.97;7397709;19;20042;-56
2022/03/24 02:36:07;;;;;;;11.88;5.85;;;;;;;5.41;100.00;101224.22;7396238;19;20099;-56
2022/03/24 02:38:33;;;;;;;22.73;5.97;;;;;;;5.36;100.00;101222.69;7396982;19;20027;-56
2022/03/24 02:40:59;;;;;;;11.48;6.03;;;;;;;5.33;100.00;101223.47;7399088;19;20470;-56
2022/03/24 02:43:25;;;;;;;13.90;3.67;;;;;;;5.26;100.00;101223.56;7397736;19;20026;-56
2022/03/24 02:45:53;;;;;;;6.20;5.50;;;;;;;5.23;100.00;101225.16;7393637;19;20014;-57
2022/03/24 02:48:21;;;;;;;16.85;5.00;;;;;;;5.18;100.00;101219.25;7396766;19;20038;-57
2022/03/24 02:50:48;;;;;;;8.77;3.58;;;;;;;5.18;100.00;101222.03;7397381;19;20007;-56
2022/03/24 02:53:16;;;;;;;6.40;3.38;;;;;;;5.16;100.00;101218.88;7396578;19;20015;-57
2022/03/24 02:55:42;;;;;;;8.88;4.10;;;;;;;5.18;100.00;101219.25;7397549;19;20015;-56
2022/03/24 02:58:08;;;;;;;20.55;7.03;;;;;;;5.17;100.00;101218.50;7395949;19;20010;-57
2022/03/24 03:00:34;;;;;;;30.35;4.68;;;;;;;5.14;100.00;101221.25;7399395;19;20010;-56
2022/03/24 03:03:01;;;;;;;16.20;5.35;;;;;;;5.12;100.00;101209.84;7397194;19;20015;-57
2022/03/24 03:05:27;;;;;;;15.63;4.88;;;;;;;5.04;100.00;101217.41;7393961;19;20011;-56
2022/03/24 03:07:53;;;;;;;14.88;4.03;;;;;;;5.02;100.00;101214.25;7395033;19;20070;-56
2022/03/24 03:10:19;;;;;;;9.52;3.80;;;;;;;5.01;100.00;101211.88;7394760;19;20470;-56
2022/03/24 03:12:46;;;;;;;5.65;4.22;;;;;;;4.98;100.00;101209.94;7396150;19;20037;-56
2022/03/24 03:15:13;;;;;;;8.45;4.85;;;;;;;4.88;100.00;101219.06;7399359;19;20026;-57
2022/03/24 03:17:39;;;;;;;6.35;3.83;;;;;;;4.94;100.00;101211.94;7395424;19;20371;-56
2022/03/24 03:20:06;;;;;;;7.50;4.10;;;;;;;4.93;100.00;101213.13;7396002;19;20011;-56
2022/03/24 03:22:35;;;;;;;14.23;5.53;;;;;;;5.00;100.00;101215.84;7398020;19;20369;-57
2022/03/24 03:25:01;;;;;;;15.95;5.13;;;;;;;4.96;100.00;101212.34;7393615;19;20011;-56
2022/03/24 03:27:29;;;;;;;10.18;5.13;;;;;;;4.96;100.00;101210.34;7395057;19;20483;-55
2022/03/24 03:29:56;;;;;;;11.63;5.50;;;;;;;4.95;100.00;101208.00;7393598;19;20349;-56
2022/03/24 03:32:24;;;;;;;10.75;4.38;;;;;;;4.94;100.00;101206.41;7397297;19;20014;-56
2022/03/24 03:34:50;;;;;;;15.02;4.82;;;;;;;4.85;100.00;101206.09;7400139;19;20011;-56
2022/03/24 03:37:16;;;;;;;18.80;5.20;;;;;;;4.81;100.00;101206.09;7396589;19;20017;-56
2022/03/24 03:39:42;;;;;;;25.27;5.05;;;;;;;4.82;100.00;101204.91;7393374;19;20018;-56
2022/03/24 03:42:08;;;;;;;16.02;4.13;;;;;;;4.81;100.00;101202.56;7398988;19;20014;-55
2022/03/24 03:44:35;;;;;;;13.73;4.97;;;;;;;4.74;100.00;101202.59;7398685;19;20021;-56
2022/03/24 03:47:02;;;;;;;15.07;4.07;;;;;;;4.74;100.00;101202.59;7395064;19;20070;-57
2022/03/24 03:49:28;;;;;;;16.63;4.60;;;;;;;4.69;100.00;101205.78;7393389;19;20011;-56
2022/03/24 03:51:55;;;;;;;11.25;3.97;;;;;;;4.62;100.00;101201.09;7397656;19;20020;-56
2022/03/24 03:54:21;;;;;;;7.45;3.97;;;;;;;4.55;100.00;101201.91;7399063;19;20018;-57
2022/03/24 03:56:47;;;;;;;8.02;4.97;;;;;;;4.48;100.00;101212.97;7393544;19;20454;-55
2022/03/24 03:59:14;;;;;;;5.07;4.10;;;;;;;4.45;100.00;101208.28;7395257;19;20494;-56
2022/03/24 04:01:40;;;;;;;22.27;5.80;;;;;;;4.43;100.00;101207.88;7396748;19;20018;-56
2022/03/24 04:04:12;;;;;;;9.38;5.50;;;;;;;4.41;100.00;101212.22;7397228;19;20034;-56
2022/03/24 04:06:43;;;;;;;15.23;4.32;;;;;;;4.39;100.00;101209.88;7399601;19;20006;-56
2022/03/24 04:09:12;;;;;;;7.32;4.55;;;;;;;4.43;100.00;101205.13;7393608;19;20553;-55
2022/03/24 04:11:39;;;;;;;32.53;7.38;;;;;;;4.41;100.00;101204.75;7396615;19;20025;-55
2022/03/24 04:14:06;;;;;;;3.95;3.58;;;;;;;4.42;100.00;101206.31;7395813;19;20010;-56
2022/03/24 04:16:32;;;;;;;10.55;3.65;;;;;;;4.39;100.00;101200.81;7395712;19;20083;-47
2022/03/24 04:18:58;;;;;;;11.90;4.47;;;;;;;4.35;100.00;101203.56;7394115;19;20010;-47
2022/03/24 04:21:24;;;;;;;8.25;3.92;;;;;;;4.34;100.00;101202.00;7396781;19;20016;-47
2022/03/24 04:23:51;;;;;;;5.03;2.33;;;;;;;4.36;100.00;101210.66;7397270;19;20077;-47
2022/03/24 04:26:17;;;;;;;20.10;4.13;;;;;;;4.34;100.00;101204.75;7393796;19;20011;-47
2022/03/24 04:28:43;;;;;;;16.63;4.57;;;;;;;4.34;100.00;101207.53;7398016;19;20018;-47
2022/03/24 04:31:11;;;;;;;11.10;5.03;;;;;;;4.33;100.00;101210.69;7395256;19;20062;-47
2022/03/24 04:33:37;;;;;;;3.78;3.33;;;;;;;4.34;100.00;101207.53;7392688;19;20013;-47
2022/03/24 04:36:08;;;;;;;3.95;3.33;;;;;;;4.38;100.00;101207.50;7394391;19;20044;-47
2022/03/24 04:38:35;;;;;;;22.75;3.90;;;;;;;4.35;100.00;101217.34;7393972;19;20015;-47
2022/03/24 04:41:02;;;;;;;10.13;5.88;;;;;;;4.34;100.00;101204.75;7395411;19;20074;-47
2022/03/24 04:43:28;;;;;;;13.05;3.80;;;;;;;4.33;100.00;101200.44;7393954;19;20025;-47
2022/03/24 04:45:54;;;;;;;12.55;2.75;;;;;;;4.32;100.00;101203.59;7392330;19;20011;-47
2022/03/24 04:48:21;;;;;;;21.98;4.47;;;;;;;4.27;100.00;101206.75;7391868;19;20021;-47
2022/03/24 04:50:47;;;;;;;12.38;4.20;;;;;;;4.25;100.00;101212.69;7395162;19;20043;-47
2022/03/24 04:53:17;;;;;;;8.18;3.95;;;;;;;4.17;100.00;101205.63;7393932;19;20042;-47
2022/03/24 04:55:44;;;;;;;12.23;4.78;;;;;;;4.12;100.00;101206.03;7394577;19;20042;-47
2022/03/24 04:58:12;;;;;;;5.25;3.60;;;;;;;4.11;100.00;101209.97;7392397;19;20019;-47
2022/03/24 05:00:39;;;;;;;8.23;2.67;;;;;;;4.14;100.00;101206.41;7395611;19;20008;-47
2022/03/24 05:03:05;;;;;;;13.48;3.78;;;;;;;4.09;100.00;101200.53;7396040;19;20014;-47
2022/03/24 05:05:31;;;;;;;8.32;3.08;;;;;;;4.05;100.00;101210.78;7391429;19;20034;-47
2022/03/24 05:07:58;;;;;;;18.42;4.90;;;;;;;3.95;100.00;101200.56;7392027;19;20491;-47
2022/03/24 05:10:24;;;;;;;25.73;6.13;;;;;;;3.92;100.00;101209.63;7393912;19;20018;-47
2022/03/24 05:12:50;;;;;;;20.25;5.22;;;;;;;3.97;100.00;101204.50;7393356;19;20341;-47
2022/03/24 05:15:16;;;;;;;20.52;5.15;;;;;;;3.95;100.00;101206.88;7395735;19;20018;-47
2022/03/24 05:17:42;;;;;;;11.20;4.70;;;;;;;3.96;100.00;101208.44;7391854;19;20039;-47
2022/03/24 05:20:09;;;;;;;22.55;6.13;;;;;;;3.92;100.00;101204.88;7392383;19;20007;-47
2022/03/24 05:22:36;;;;;;;13.95;4.55;;;;;;;3.88;100.00;101206.88;7393343;19;20038;-47
2022/03/24 05:25:03;;;;;;;10.60;4.30;;;;;;;3.87;100.00;101208.06;7392901;19;20010;-47
2022/03/24 05:27:29;;;;;;;21.48;3.78;;;;;;;3.87;100.00;101210.81;7401199;19;20355;-47
2022/03/24 05:29:55;;;;;;;6.88;3.40;;;;;;;3.87;100.00;101210.03;7399366;19;20010;-47
2022/03/24 05:32:22;;;;;;;8.98;4.70;;;;;;;3.84;100.00;101217.13;7402060;19;20459;-47
2022/03/24 05:34:48;;;;;;;11.70;5.03;;;;;;;3.76;100.00;101215.56;7400157;19;20481;-47
2022/03/24 05:37:15;;;;;;;7.93;4.55;;;;;;;3.75;100.00;101213.97;7400318;19;20451;-48
2022/03/24 05:39:42;;;;;;;21.40;4.78;;;;;;;3.71;100.00;101226.97;7400096;19;20013;-47
2022/03/24 05:42:09;;;;;;;13.32;3.20;;;;;;;3.70;100.00;101222.66;7401757;19;20471;-48
2022/03/24 05:44:36;;;;;;;6.82;3.53;;;;;;;3.69;100.00;101221.06;7397111;19;20078;-47
2022/03/24 05:47:02;;;;;;;5.75;3.78;;;;;;;3.69;100.00;101224.63;7398306;19;20010;-47
2022/03/24 05:49:29;;;;;;;3.90;3.55;;;;;;;3.65;100.00;101225.81;7399696;19;20014;-47
2022/03/24 05:52:14;;;;;;;5.28;4.03;;;;;;;3.60;100.00;101217.94;7404164;19;20070;-47
2022/03/24 05:54:40;;;;;;;23.70;4.60;;;;;;;3.58;100.00;101220.31;7399986;19;20014;-47
2022/03/24 05:57:08;;;;;;;3.90;3.35;;;;;;;3.58;100.00;101220.31;7399056;19;20017;-47
2022/03/24 05:59:34;;;;;;;10.25;4.10;;;;;;;3.59;100.00;101219.13;7402194;19;20015;-47
2022/03/24 06:02:00;;;;;;;8.00;4.00;;;;;;;3.58;100.00;101223.84;7401402;19;20328;-47
2022/03/24 06:04:27;;;;;;;4.65;3.40;;;;;;;3.54;100.00;101220.31;7396207;19;20021;-48
2022/03/24 06:06:56;;;;;;;3.60;3.33;;;;;;;3.49;100.00;101222.66;7398020;19;20059;-47
2022/03/24 06:09:22;;;;;;;9.38;2.80;;;;;;;3.47;100.00;101225.03;7398147;19;20011;-47
2022/03/24 06:11:49;;;;;;;6.75;3.33;;;;;;;3.46;100.00;101229.75;7400193;19;20013;-47
2022/03/24 06:14:15;;;;;;;9.70;2.80;;;;;;;3.44;100.00;101228.59;7402376;19;20018;-47
2022/03/24 06:16:42;;;;;;;7.43;3.78;;;;;;;3.55;100.00;101226.63;7398742;19;20380;-47
2022/03/24 06:19:09;;;;;;;5.45;4.47;;;;;;;3.55;100.00;101226.63;7403259;19;20022;-47
2022/03/24 06:21:37;;;;;;;7.85;2.95;;;;;;;3.62;100.00;101229.34;7401448;19;20014;-47
2022/03/24 06:24:04;;;;;;;8.93;3.95;;;;;;;3.63;100.00;101220.69;7396397;19;20063;-48
2022/03/24 06:26:30;;;;;;;17.38;4.65;;;;;;;3.68;100.00;101236.81;7398477;19;20010;-48
2022/03/24 06:28:56;;;;;;;16.08;3.50;;;;;;;3.69;100.00;101226.59;7398183;19;20366;-48
2022/03/24 06:31:23;;;;;;;14.23;2.90;;;;;;;3.69;100.00;101221.06;7400313;19;20463;-47
2022/03/24 06:33:49;;;;;;;6.78;2.75;;;;;;;3.69;100.00;101227.38;7400711;19;20011;-47
2022/03/24 06:36:15;;;;;;;3.80;3.33;;;;;;;3.66;100.00;101227.41;7399640;19;20376;-47
2022/03/24 06:38:42;;;;;;;3.80;3.47;;;;;;;3.68;100.00;101225.03;7399290;19;20007;-48
2022/03/24 06:41:08;;;;;;;12.32;2.70;;;;;;;3.71;100.00;101232.50;7400339;19;20511;-48
2022/03/24 06:43:35;;;;;;;2.38;2.25;;;;;;;3.74;100.00;101229.75;7399567;19;20007;-48
2022/03/24 06:46:02;;;;;;;5.75;2.63;;;;;;;3.81;100.00;101229.72;7395465;19;20043;-48
2022/03/24 06:48:29;;;;;;;8.50;3.65;;;;;;;3.85;100.00;101238.00;7398759;19;20081;-48
2022/03/24 06:50:55;;;;;;;7.72;2.70;;;;;;;3.89;100.00;101237.97;7398484;19;20035;-48
2022/03/24 06:53:21;;;;;;;7.65;3.30;;;;;;;3.95;100.00;101239.13;7401339;19;20344;-48
2022/03/24 06:55:47;;;;;;;5.32;3.17;;;;;;;3.95;100.00;101228.91;7395876;19;20015;-48
2022/03/24 06:58:13;;;;;;;8.02;3.67;;;;;;;4.02;100.00;101239.94;7396537;19;20007;-48
2022/03/24 07:00:39;;;;;;;15.63;5.70;;;;;;;4.01;100.00;101243.84;7400500;19;20015;-48
2022/03/24 07:03:06;;;;;;;5.72;4.43;;;;;;;4.04;100.00;101237.56;7396000;19;20043;-48
2022/03/24 07:05:32;;;;;;;9.25;5.85;;;;;;;4.08;100.00;101251.31;7394734;19;20007;-48
2022/03/24 07:07:59;;;;;;;5.90;3.30;;;;;;;4.14;100.00;101247.75;7396065;19;20336;-48
2022/03/24 07:10:25;;;;;;;5.15;3.67;;;;;;;4.12;100.00;101250.13;7397288;19;20450;-48
2022/03/24 07:12:52;;;;;;;12.63;4.88;;;;;;;4.09;100.00;101252.91;7397162;19;20018;-48
2022/03/24 07:15:19;;;;;;;7.70;5.43;;;;;;;4.19;100.00;101250.13;7394991;19;20006;-48
2022/03/24 07:17:45;;;;;;;14.73;5.40;;;;;;;4.34;100.00;101254.41;7400320;19;20010;-48
2022/03/24 07:20:11;;;;;;;11.48;3.47;;;;;;;4.36;100.00;101254.78;7395529;19;20018;-48
2022/03/24 07:22:38;;;;;;;12.57;6.30;;;;;;;4.37;100.00;101256.38;7398689;19;20363;-48
2022/03/24 07:25:06;;;;;;;10.77;4.18;;;;;;;4.44;100.00;101248.06;7397109;19;20420;-48
2022/03/24 07:27:33;;;;;;;14.48;5.05;;;;;;;4.53;100.00;101255.91;7398653;19;20394;-48
2022/03/24 07:29:59;;;;;;;19.67;5.93;;;;;;;4.61;100.00;101255.47;7399090;19;20007;-48
2022/03/24 07:32:25;;;;;;;8.43;4.50;;;;;;;4.71;100.00;101258.59;7396375;19;20364;-48
2022/03/24 07:34:52;;;;;;;17.80;5.07;;;;;;;4.81;100.00;101260.53;7399360;19;20007;-48
2022/03/24 07:37:18;;;;;;;22.30;3.85;;;;;;;4.91;100.00;101254.94;7399228;19;20017;-48
2022/03/24 07:39:44;;;;;;;9.00;2.78;;;;;;;5.03;100.00;101259.19;7399111;19;20070;-48
2022/03/24 07:42:10;;;;;;;12.07;4.22;;;;;;;5.10;100.00;101261.91;7399296;19;20030;-48
2022/03/24 07:44:36;;;;;;;4.47;3.85;;;;;;;5.20;100.00;101263.81;7398642;19;20038;-48
2022/03/24 07:47:03;;;;;;;5.40;4.07;;;;;;;5.29;100.00;101261.41;7398718;19;20037;-48
2022/03/24 07:49:29;;;;;;;13.77;4.65;;;;;;;5.40;100.00;101262.09;7398216;19;20027;-48
2022/03/24 07:51:56;;;;;;;5.60;4.22;;;;;;;5.51;100.00;101268.34;7396616;19;20011;-48
2022/03/24 07:54:40;;;;;;;17.92;5.88;;;;;;;5.58;100.00;101273.81;7394047;19;20019;-48
2022/03/24 07:57:06;;;;;;;19.90;5.28;;;;;;;5.77;100.00;101270.50;7394450;19;20015;-48
2022/03/24 07:59:34;;;;;;;29.33;6.38;;;;;;;5.91;100.00;101273.16;7394713;19;20355;-48
2022/03/24 08:02:01;;;;;;;14.90;5.50;;;;;;;6.05;100.00;101275.78;7396064;19;20030;-48
2022/03/24 08:04:27;;;;;;;13.98;4.55;;;;;;;6.19;100.00;101276.84;7393566;19;20011;-48
2022/03/24 08:06:53;;;;;;;9.88;3.90;;;;;;;6.32;100.00;101283.41;7394798;19;20019;-48
2022/03/24 08:09:19;;;;;;;11.32;3.53;;;;;;;6.41;100.00;101278.94;7394457;19;20066;-48
2022/03/24 08:11:45;;;;;;;12.32;4.47;;;;;;;6.57;100.00;101286.69;7395417;19;20021;-48
2022/03/24 08:14:11;;;;;;;27.95;6.40;;;;;;;6.71;100.00;101278.97;7393812;19;20014;-48
2022/03/24 08:16:37;;;;;;;23.13;7.35;;;;;;;6.86;100.00;101279.59;7393724;19;20030;-48
2022/03/24 08:19:04;;;;;;;22.75;6.43;;;;;;;6.93;100.00;101290.56;7395827;19;20046;-48
2022/03/24 08:21:30;;;;;;;8.73;4.38;;;;;;;7.05;100.00;101290.03;7396525;19;20006;-48
2022/03/24 08:23:57;;;;;;;30.17;6.90;;;;;;;7.16;100.00;101287.91;7393697;19;20014;-48
2022/03/24 08:26:23;;;;;;;16.02;4.78;;;;;;;7.30;100.00;101286.88;7393692;19;20042;-48
2022/03/24 08:28:49;;;;;;;26.92;6.03;;;;;;;7.42;100.00;101289.09;7392531;19;20066;-48
2022/03/24 08:31:15;;;;;;;11.35;3.78;;;;;;;7.52;100.00;101294.47;7393754;19;20011;-48
2022/03/24 08:33:42;;;;;;;8.40;4.47;;;;;;;7.60;100.00;101286.84;7392787;19;20070;-48
2022/03/24 08:36:09;;;;;;;14.35;4.82;;;;;;;7.63;100.00;101289.56;7393385;19;20070;-48
2022/03/24 08:38:36;;;;;;;33.80;6.50;;;;;;;7.80;100.00;101286.91;7393507;19;20010;-48
2022/03/24 08:41:03;;;;;;;11.43;4.32;;;;;;;7.97;100.00;101291.38;7397429;19;20066;-47
2022/03/24 08:43:29;;;;;;;17.00;6.57;;;;;;;8.17;100.00;101283.84;7393473;19;20010;-47
2022/03/24 08:45:55;;;;;;;27.25;6.30;;;;;;;8.38;100.00;101283.53;7390234;19;20007;-48
2022/03/24 08:48:22;;;;;;;25.00;6.88;;;;;;;8.60;100.00;101287.41;7392632;19;20021;-48
2022/03/24 08:50:48;;;;;;;16.58;6.22;;;;;;;8.72;100.00;101277.66;7394101;19;20017;-48
2022/03/24 08:53:15;;;;;;;31.35;7.03;;;;;;;8.87;100.00;101284.50;7395498;19;20039;-48
2022/03/24 08:55:41;;;;;;;23.77;6.50;;;;;;;8.97;100.00;101281.50;7395280;19;20406;-48
2022/03/24 08:58:08;;;;;;;15.45;5.95;;;;;;;9.09;100.00;101286.41;7397142;19;20021;-48
2022/03/24 09:00:34;;;;;;;21.83;5.72;;;;;;;9.24;100.00;101289.63;7397966;19;20013;-48
2022/03/24 09:03:01;;;;;;;23.73;6.35;;;;;;;9.43;100.00;101285.22;7401619;19;20077;-48
2022/03/24 09:05:27;;;;;;;31.98;6.88;;;;;;;9.61;100.00;101282.81;7402920;19;20507;-48
2022/03/24 09:07:53;;;;;;;18.77;5.30;;;;;;;9.78;100.00;101281.59;7400785;19;20010;-48
2022/03/24 09:10:19;;;;;;;25.20;7.35;;;;;;;9.93;100.00;101280.81;7400485;19;20030;-48
2022/03/24 09:12:47;;;;;;;19.02;6.13;;;;;;;10.09;100.00;101282.00;7404204;19;20023;-48
2022/03/24 09:15:16;;;;;;;23.75;6.28;;;;;;;10.27;100.00;101291.47;7403178;19;20442;-47
2022/03/24 09:17:43;;;;;;;12.95;5.18;;;;;;;10.42;100.00;101289.06;7400132;19;20010;-48
2022/03/24 09:20:12;;;;;;;17.70;5.88;;;;;;;10.55;100.00;101292.69;7400308;19;20015;-47
2022/03/24 09:22:43;;;;;;;25.50;5.78;;;;;;;10.71;100.00;101289.06;7399319;19;20343;-47
2022/03/24 09:25:12;;;;;;;11.75;5.07;;;;;;;10.83;100.00;101285.53;7398688;19;20014;-47
2022/03/24 09:27:39;;;;;;;28.05;7.20;;;;;;;10.96;100.00;101289.91;7403997;19;20502;-47
2022/03/24 09:30:07;;;;;;;13.00;5.38;;;;;;;11.26;100.00;101288.63;7400438;19;20019;-47
2022/03/24 09:32:34;;;;;;;21.42;5.50;;;;;;;11.57;100.00;101289.59;7398311;19;20010;-47
2022/03/24 09:35:03;;;;;;;24.80;4.80;;;;;;;11.74;100.00;101282.69;7399976;19;20015;-47
2022/03/24 09:37:29;;;;;;;23.67;6.57;;;;;;;11.89;100.00;101278.19;7399466;19;20040;-48
2022/03/24 09:39:55;;;;;;;15.18;5.57;;;;;;;12.06;100.00;101284.44;7398670;19;20015;-48
2022/03/24 09:42:22;;;;;;;37.05;6.38;;;;;;;12.19;100.00;101291.50;7402700;19;20138;-47
2022/03/24 09:44:49;;;;;;;16.85;6.57;;;;;;;12.41;100.00;101280.38;7401610;19;20019;-48
2022/03/24 09:47:15;;;;;;;15.57;6.35;;;;;;;12.60;100.00;101286.91;7400730;19;20035;-48
2022/03/24 09:49:43;;;;;;;16.02;6.10;;;;;;;12.80;100.00;101285.31;7399824;19;20009;-48
2022/03/24 09:52:13;;;;;;;17.40;6.40;;;;;;;13.07;100.00;101281.94;7402540;19;20018;-48
2022/03/24 09:54:45;;;;;;;22.52;7.82;;;;;;;13.31;100.00;101279.41;7399673;19;20018;-48
2022/03/24 09:57:12;;;;;;;28.92;5.72;;;;;;;13.49;100.00;101277.47;7398588;19;20057;-47
2022/03/24 09:59:40;;;;;;;15.05;4.93;;;;;;;13.74;100.00;101278.47;7399139;19;20504;-48
2022/03/24 10:02:07;;;;;;;14.52;5.88;;;;;;;14.00;100.00;101286.16;7403073;19;20032;-48
2022/03/24 10:04:51;;;;;;;23.65;6.55;;;;;;;14.25;100.00;101276.72;7397914;19;20062;-47
2022/03/24 10:07:23;;;;;;;20.48;6.50;;;;;;;14.43;100.00;101271.13;7398180;19;20384;-48
2022/03/24 10:09:53;;;;;;;22.73;8.05;;;;;;;14.65;100.00;101271.72;7398848;19;20014;-48
2022/03/24 10:12:28;;;;;;;15.10;5.80;;;;;;;14.94;100.00;101266.34;7400725;19;20010;-48
2022/03/24 10:15:04;;;;;;;17.42;5.93;;;;;;;15.03;100.00;101266.34;7401609;19;20420;-48
2022/03/24 10:17:31;;;;;;;23.35;6.72;;;;;;;15.17;100.00;101265.69;7400159;19;20010;-48
2022/03/24 10:19:58;;;;;;;23.92;6.43;;;;;;;15.29;100.00;101274.38;7397288;19;20015;-48
2022/03/24 10:22:25;;;;;;;13.02;6.93;;;;;;;15.41;100.00;101270.56;7402567;19;20010;-48
2022/03/24 10:24:51;;;;;;;29.73;7.72;;;;;;;15.54;100.00;101271.16;7397778;19;20010;-48
2022/03/24 10:27:26;;;;;;;18.23;6.47;;;;;;;15.81;100.00;101276.63;7398793;19;20019;-48
2022/03/24 10:29:57;;;;;;;20.70;7.20;;;;;;;15.98;100.00;101272.16;7397588;19;20344;-48
2022/03/24 10:32:31;;;;;;;18.58;6.15;;;;;;;16.11;100.00;101274.72;7400653;19;20022;-49
2022/03/24 10:35:08;;;;;;;19.20;6.28;;;;;;;16.30;100.00;101271.31;7397112;19;20018;-48
2022/03/24 10:37:35;;;;;;;15.20;5.13;;;;;;;16.48;100.00;101276.00;7396552;19;20040;-48
2022/03/24 10:40:06;;;;;;;17.52;5.60;;;;;;;16.49;100.00;101272.69;7397326;19;20023;-48
2022/03/24 10:42:34;;;;;;;;;;;;;;;16.58;100.00;101272.66;7402553;19;20007;-48
2022/03/24 10:45:11;;;;;;;18.40;5.88;;;;;;;16.66;100.00;101267.41;7399013;19;19921;-48
2022/03/24 10:47:40;;;;;;;21.85;6.68;;;;;;;16.74;100.00;101271.38;7396574;19;20014;-48
2022/03/24 10:50:42;;;;;;;20.02;5.50;;;;;;;16.91;100.00;101268.88;7396695;19;20010;-48
2022/03/24 10:53:09;;;;;;;22.70;6.97;;;;;;;16.99;100.00;101270.03;7394548;19;20007;-48
2022/03/24 10:55:35;;;;;;;23.80;6.35;;;;;;;17.14;100.00;101276.44;7396232;19;20015;-48
2022/03/24 10:58:07;;;;;;;15.75;5.88;;;;;;;17.25;100.00;101271.00;7397360;19;20703;-48
2022/03/24 11:00:34;;;;;;;17.42;5.80;;;;;;;17.41;100.00;101267.69;7396934;19;20070;-48
2022/03/24 11:03:00;;;;;;;19.52;6.60;;;;;;;17.47;100.00;101264.94;7400911;19;20376;-48
2022/03/24 11:05:27;;;;;;;11.50;5.85;;;;;;;17.68;100.00;101269.38;7395440;19;20017;-48
2022/03/24 11:07:54;;;;;;;12.35;5.47;;;;;;;17.70;100.00;101261.97;7396151;19;20487;-49
2022/03/24 11:10:22;;;;;;;15.80;6.95;;;;;;;17.75;100.00;101268.97;7398628;19;20010;-48
2022/03/24 11:12:57;;;;;;;19.45;6.20;;;;;;;17.90;100.00;101261.22;7397847;19;20103;-49
2022/03/24 11:15:24;;;;;;;26.55;8.02;;;;;;;18.02;100.00;101260.09;7401324;19;20361;-49
2022/03/24 11:17:50;;;;;;;22.77;5.80;;;;;;;18.02;98.16;101265.75;7398416;19;20021;-49
2022/03/24 11:20:37;;;;;;;15.13;4.95;;;;;;;18.10;98.57;101256.38;7396519;19;20502;-48